createdAt,value
2022-11-01T00:02:09.931Z,8.20
2022-11-01T00:04:44.967Z,8.00
2022-11-01T00:07:11.567Z,7.47
2022-11-01T00:09:38.203Z,8.77
2022-11-01T00:12:08.138Z,9.57
2022-11-01T00:14:34.968Z,8.95
2022-11-01T00:17:01.581Z,8.73
2022-11-01T00:19:28.231Z,7.88
2022-11-01T00:21:55.111Z,8.57
2022-11-01T00:24:22.099Z,10.25
2022-11-01T00:26:58.006Z,9.18
2022-11-01T00:29:24.660Z,8.57
2022-11-01T00:31:54.234Z,9.63
2022-11-01T00:34:20.772Z,8.20
2022-11-01T00:36:50.076Z,8.50
2022-11-01T00:39:20.434Z,8.98
2022-11-01T00:41:46.973Z,8.68
2022-11-01T00:44:17.155Z,8.50
2022-11-01T00:46:43.690Z,8.85
2022-11-01T00:49:12.941Z,8.00
2022-11-01T00:51:43.043Z,8.90
2022-11-01T00:54:09.835Z,9.02
2022-11-01T00:56:36.392Z,8.82
2022-11-01T00:59:05.804Z,8.77
2022-11-01T01:01:32.620Z,8.50
2022-11-01T01:03:59.493Z,9.77
2022-11-01T01:06:26.103Z,7.88
2022-11-01T01:08:52.658Z,8.38
2022-11-01T01:11:19.275Z,8.13
2022-11-01T01:13:45.851Z,9.05
2022-11-01T01:16:13.204Z,6.32
2022-11-01T01:18:40.901Z,7.95
2022-11-01T01:21:08.503Z,8.10
2022-11-01T01:23:36.494Z,6.18
2022-11-01T01:26:10.727Z,7.82
2022-11-01T01:28:41.893Z,8.65
2022-11-01T01:31:12.917Z,8.70
2022-11-01T01:33:42.360Z,8.30
2022-11-01T01:36:11.089Z,8.10
2022-11-01T01:38:38.009Z,9.32
2022-11-01T01:41:24.228Z,9.55
2022-11-01T01:43:56.588Z,10.80
2022-11-01T01:46:23.106Z,10.65
2022-11-01T01:48:55.351Z,9.45
2022-11-01T01:51:26.981Z,11.00
2022-11-01T01:54:01.658Z,10.55
2022-11-01T01:56:38.984Z,9.85
2022-11-01T01:59:10.905Z,9.15
2022-11-01T02:04:16.214Z,9.15
2022-11-01T02:06:42.828Z,8.20
2022-11-01T02:09:10.037Z,8.35
2022-11-01T02:11:36.632Z,8.05
2022-11-01T02:14:03.623Z,7.22
2022-11-01T02:17:13.228Z,8.15
2022-11-01T02:20:34.232Z,8.18
2022-11-01T02:23:25.718Z,7.22
2022-11-01T02:26:07.599Z,7.95
2022-11-01T02:29:05.742Z,7.68
2022-11-01T02:31:57.052Z,7.40
2022-11-01T02:34:34.505Z,6.05
2022-11-01T02:37:48.633Z,7.65
2022-11-01T02:40:21.898Z,7.40
2022-11-01T02:42:55.301Z,7.55
2022-11-01T02:45:29.030Z,7.70
2022-11-01T02:48:00.358Z,7.60
2022-11-01T02:50:30.996Z,8.43
2022-11-01T02:52:59.074Z,7.07
2022-11-01T02:55:34.202Z,7.93
2022-11-01T02:58:34.014Z,7.47
2022-11-01T03:01:00.680Z,7.88
2022-11-01T03:03:35.366Z,7.70
2022-11-01T03:06:10.439Z,7.55
2022-11-01T03:08:52.012Z,7.75
2022-11-01T03:11:23.028Z,7.95
2022-11-01T03:14:30.222Z,7.27
2022-11-01T03:17:12.454Z,7.32
2022-11-01T03:20:23.741Z,7.22
2022-11-01T03:22:56.769Z,7.80
2022-11-01T03:25:39.823Z,7.75
2022-11-01T03:28:27.114Z,7.30
2022-11-01T03:31:06.260Z,8.30
2022-11-01T03:33:37.546Z,7.75
2022-11-01T03:36:13.478Z,7.75
2022-11-01T03:38:47.104Z,7.45
2022-11-01T03:41:19.534Z,7.90
2022-11-01T03:43:49.500Z,7.00
2022-11-01T03:46:16.613Z,7.47
2022-11-01T03:48:47.563Z,6.72
2022-11-01T03:51:14.235Z,6.75
2022-11-01T03:53:40.828Z,7.82
2022-11-01T03:56:07.702Z,7.55
2022-11-01T03:58:44.268Z,7.57
2022-11-01T04:01:13.612Z,7.35
2022-11-01T04:03:43.971Z,8.15
2022-11-01T04:06:10.971Z,7.78
2022-11-01T04:08:41.302Z,7.75
2022-11-01T04:11:07.921Z,7.72
2022-11-01T04:13:40.472Z,7.32
2022-11-01T04:16:26.301Z,7.97
2022-11-01T04:19:13.846Z,7.68
2022-11-01T04:21:50.750Z,7.13
2022-11-01T04:24:24.776Z,6.95
2022-11-01T04:26:53.572Z,8.00
2022-11-01T04:29:20.395Z,7.32
2022-11-01T04:31:46.947Z,7.20
2022-11-01T04:34:13.775Z,6.75
2022-11-01T04:36:40.332Z,7.18
2022-11-01T04:39:07.269Z,5.68
2022-11-01T04:41:33.909Z,7.30
2022-11-01T04:44:02.018Z,7.43
2022-11-01T04:46:37.231Z,7.68
2022-11-01T04:49:03.764Z,7.22
2022-11-01T04:51:35.976Z,6.80
2022-11-01T04:54:03.483Z,7.30
2022-11-01T04:56:30.374Z,6.20
2022-11-01T04:58:57.107Z,7.15
2022-11-01T05:01:23.937Z,7.05
2022-11-01T05:03:53.770Z,7.10
2022-11-01T05:06:22.168Z,7.38
2022-11-01T05:08:51.551Z,6.90
2022-11-01T05:11:18.083Z,7.15
2022-11-01T05:13:47.745Z,6.85
2022-11-01T05:16:19.328Z,6.30
2022-11-01T05:18:49.480Z,5.95
2022-11-01T05:21:16.449Z,8.20
2022-11-01T05:23:46.320Z,6.60
2022-11-01T05:26:12.855Z,7.05
2022-11-01T05:28:43.569Z,6.45
2022-11-01T05:31:11.003Z,7.10
2022-11-01T05:33:37.745Z,7.65
2022-11-01T05:36:05.578Z,7.60
2022-11-01T05:38:32.202Z,7.38
2022-11-01T05:41:02.669Z,7.20
2022-11-01T05:43:29.512Z,7.53
2022-11-01T05:45:58.241Z,7.72
2022-11-01T05:48:28.527Z,6.82
2022-11-01T05:50:58.832Z,7.68
2022-11-01T05:53:27.508Z,6.50
2022-11-01T05:56:00.359Z,7.57
2022-11-01T05:58:32.692Z,7.25
2022-11-01T06:01:05.868Z,7.57
2022-11-01T06:03:34.878Z,7.90
2022-11-01T06:06:01.613Z,7.40
2022-11-01T06:08:30.114Z,13.52
2022-11-01T06:11:06.083Z,7.60
2022-11-01T06:13:34.165Z,7.30
2022-11-01T06:16:05.371Z,7.53
2022-11-01T06:18:34.861Z,7.75
2022-11-01T06:21:01.454Z,7.40
2022-11-01T06:23:31.149Z,7.25
2022-11-01T06:26:04.904Z,7.50
2022-11-01T06:28:49.403Z,7.10
2022-11-01T06:31:18.996Z,7.15
2022-11-01T06:33:48.489Z,7.20
2022-11-01T06:36:17.202Z,7.18
2022-11-01T06:38:45.347Z,6.70
2022-11-01T06:41:15.600Z,6.97
2022-11-01T06:43:45.232Z,7.20
2022-11-01T06:46:11.861Z,7.55
2022-11-01T06:48:39.423Z,7.00
2022-11-01T06:51:06.173Z,6.93
2022-11-01T06:53:32.835Z,6.63
2022-11-01T06:56:00.960Z,6.35
2022-11-01T06:58:28.428Z,6.22
2022-11-01T07:00:57.423Z,6.53
2022-11-01T07:03:27.162Z,6.20
2022-11-01T07:06:00.687Z,6.15
2022-11-01T07:08:27.381Z,6.95
2022-11-01T07:10:57.489Z,6.60
2022-11-01T07:13:26.938Z,5.80
2022-11-01T07:15:53.918Z,5.47
2022-11-01T07:18:20.444Z,5.70
2022-11-01T07:23:18.686Z,5.80
2022-11-01T07:25:45.337Z,5.72
2022-11-01T07:28:12.402Z,5.30
2022-11-01T07:30:39.442Z,5.45
2022-11-01T07:33:06.430Z,4.70
2022-11-01T07:35:34.627Z,4.75
2022-11-01T07:38:04.963Z,5.22
2022-11-01T07:40:35.754Z,4.82
2022-11-01T07:43:02.948Z,5.25
2022-11-01T07:45:31.873Z,5.50
2022-11-01T07:48:00.030Z,5.30
2022-11-01T07:50:26.796Z,4.93
2022-11-01T07:53:10.633Z,6.00
2022-11-01T07:55:37.728Z,4.82
2022-11-01T07:58:06.067Z,4.60
2022-11-01T08:03:31.180Z,4.68
2022-11-01T08:05:57.782Z,4.72
2022-11-01T08:08:24.562Z,4.25
2022-11-01T08:10:53.935Z,7.68
2022-11-01T08:13:22.993Z,6.00
2022-11-01T08:15:51.064Z,5.00
2022-11-01T08:18:19.396Z,4.60
2022-11-01T08:20:45.909Z,4.85
2022-11-01T08:23:12.816Z,4.53
2022-11-01T08:25:39.476Z,4.38
2022-11-01T08:28:16.968Z,5.80
2022-11-01T08:30:46.711Z,4.35
2022-11-01T08:33:13.264Z,4.43
2022-11-01T08:35:39.752Z,4.43
2022-11-01T08:38:06.626Z,4.25
2022-11-01T08:40:33.784Z,4.57
2022-11-01T08:43:01.510Z,4.20
2022-11-01T08:45:29.160Z,3.75
2022-11-01T08:48:03.542Z,3.70
2022-11-01T08:50:30.742Z,3.53
2022-11-01T08:52:57.371Z,4.10
2022-11-01T08:55:24.004Z,4.10
2022-11-01T08:57:50.800Z,4.03
2022-11-01T09:00:18.393Z,4.13
2022-11-01T09:02:44.947Z,3.80
2022-11-01T09:05:13.395Z,3.88
2022-11-01T09:07:40.011Z,3.47
2022-11-01T09:10:07.498Z,4.53
2022-11-01T09:12:34.376Z,3.85
2022-11-01T09:15:01.162Z,3.42
2022-11-01T09:17:27.949Z,3.38
2022-11-01T09:19:54.880Z,3.85
2022-11-01T09:22:22.951Z,3.95
2022-11-01T09:24:49.708Z,3.70
2022-11-01T09:27:18.245Z,3.78
2022-11-01T09:29:47.943Z,3.60
2022-11-01T09:32:23.809Z,3.40
2022-11-01T09:34:50.444Z,3.20
2022-11-01T09:37:20.591Z,3.95
2022-11-01T09:39:49.029Z,4.18
2022-11-01T09:42:45.978Z,3.60
2022-11-01T09:45:26.593Z,3.70
2022-11-01T09:47:56.069Z,3.85
2022-11-01T09:50:26.936Z,4.18
2022-11-01T09:52:55.744Z,4.50
2022-11-01T09:55:45.908Z,4.10
2022-11-01T09:58:24.215Z,4.80
2022-11-01T10:01:09.611Z,4.57
2022-11-01T10:03:53.936Z,4.97
2022-11-01T10:06:26.951Z,4.40
2022-11-01T10:09:14.729Z,4.97
2022-11-01T10:12:09.992Z,5.07
2022-11-01T10:14:48.937Z,5.40
2022-11-01T10:17:22.558Z,5.20
2022-11-01T10:19:50.901Z,5.65
2022-11-01T10:22:19.857Z,4.63
2022-11-01T10:24:49.875Z,5.20
2022-11-01T10:27:26.549Z,5.03
2022-11-01T10:30:02.622Z,5.05
2022-11-01T10:33:02.732Z,4.43
2022-11-01T10:35:40.694Z,4.82
2022-11-01T10:38:38.030Z,4.45
2022-11-01T10:41:11.026Z,4.82
2022-11-01T10:43:45.442Z,4.35
2022-11-01T10:46:18.144Z,4.53
2022-11-01T10:48:50.540Z,5.22
2022-11-01T10:51:25.305Z,4.70
2022-11-01T10:53:58.794Z,4.40
2022-11-01T10:56:31.676Z,4.80
2022-11-01T10:59:15.806Z,4.10
2022-11-01T11:01:50.135Z,4.70
2022-11-01T11:04:22.037Z,4.20
2022-11-01T11:09:35.750Z,4.50
2022-11-01T11:12:10.706Z,4.53
2022-11-01T11:14:39.501Z,5.53
2022-11-01T11:17:34.176Z,5.65
2022-11-01T11:20:04.567Z,5.82
2022-11-01T11:22:43.480Z,10.30
2022-11-01T11:25:16.323Z,7.15
2022-11-01T11:27:51.221Z,5.78
2022-11-01T11:30:30.222Z,6.40
2022-11-01T11:33:01.314Z,6.60
2022-11-01T11:35:30.339Z,5.38
2022-11-01T11:38:00.788Z,6.97
2022-11-01T11:40:42.183Z,5.68
2022-11-01T11:43:25.569Z,6.00
2022-11-01T11:46:22.758Z,4.90
2022-11-01T11:48:57.169Z,4.75
2022-11-01T11:51:33.002Z,4.20
2022-11-01T11:54:32.116Z,4.05
2022-11-01T11:57:22.752Z,4.85
2022-11-01T12:00:21.405Z,5.20
2022-11-01T12:02:53.212Z,4.80
2022-11-01T12:05:28.811Z,8.68
2022-11-01T12:07:57.154Z,7.15
2022-11-01T12:10:34.345Z,5.82
2022-11-01T12:13:22.780Z,5.90
2022-11-01T12:15:49.384Z,6.53
2022-11-01T12:18:18.319Z,6.13
2022-11-01T12:20:52.299Z,5.65
2022-11-01T12:23:40.798Z,5.55
2022-11-01T12:26:16.691Z,6.38
2022-11-01T12:28:48.736Z,6.35
2022-11-01T12:31:19.593Z,7.10
2022-11-01T12:34:12.395Z,5.47
2022-11-01T12:36:46.300Z,7.35
2022-11-01T12:39:34.048Z,8.05
2022-11-01T12:42:11.724Z,6.88
2022-11-01T12:44:42.950Z,7.00
2022-11-01T12:47:19.948Z,9.68
2022-11-01T12:50:05.186Z,9.95
2022-11-01T12:52:49.998Z,9.70
2022-11-01T12:55:29.946Z,10.40
2022-11-01T12:57:56.873Z,8.80
2022-11-01T13:00:27.320Z,7.35
2022-11-01T13:03:09.041Z,8.25
2022-11-01T13:05:46.989Z,8.02
2022-11-01T13:08:31.567Z,7.35
2022-11-01T13:11:13.330Z,8.77
2022-11-01T13:13:50.390Z,8.82
2022-11-01T13:16:23.956Z,13.07
2022-11-01T13:19:02.643Z,8.50
2022-11-01T13:21:44.525Z,7.40
2022-11-01T13:24:22.734Z,9.95
2022-11-01T13:26:56.660Z,7.25
2022-11-01T13:29:35.747Z,7.07
2022-11-01T13:32:14.909Z,6.95
2022-11-01T13:35:12.597Z,6.32
2022-11-01T13:37:58.322Z,8.15
2022-11-01T13:40:24.837Z,7.00
2022-11-01T13:42:59.844Z,8.05
2022-11-01T13:46:00.546Z,7.97
2022-11-01T13:48:45.894Z,8.40
2022-11-01T13:51:43.177Z,7.80
2022-11-01T13:54:22.121Z,9.55
2022-11-01T13:57:02.024Z,9.63
2022-11-01T13:59:36.531Z,9.10
2022-11-01T14:02:28.214Z,10.75
2022-11-01T14:05:00.130Z,10.88
2022-11-01T14:07:43.729Z,10.85
2022-11-01T14:10:33.422Z,10.50
2022-11-01T14:13:10.311Z,13.52
2022-11-01T14:16:01.642Z,9.65
2022-11-01T14:18:28.294Z,11.17
2022-11-01T14:20:57.845Z,23.00
2022-11-01T14:23:28.776Z,13.45
2022-11-01T14:26:20.403Z,14.37
2022-11-01T14:28:54.791Z,14.23
2022-11-01T14:31:24.909Z,14.00
2022-11-01T14:34:00.275Z,11.95
2022-11-01T14:36:32.905Z,12.27
2022-11-01T14:39:21.970Z,13.18
2022-11-01T14:42:06.450Z,8.18
2022-11-01T14:44:42.038Z,11.32
2022-11-01T14:47:38.974Z,11.10
2022-11-01T14:50:16.635Z,10.00
2022-11-01T14:52:53.549Z,11.60
2022-11-01T14:55:36.451Z,9.25
2022-11-01T14:58:20.851Z,8.70
2022-11-01T15:00:50.857Z,9.63
2022-11-01T15:03:18.540Z,9.93
2022-11-01T15:05:50.636Z,9.18
2022-11-01T15:08:32.925Z,8.82
2022-11-01T15:11:05.342Z,8.63
2022-11-01T15:13:36.868Z,9.13
2022-11-01T15:16:23.306Z,10.18
2022-11-01T15:18:57.854Z,8.93
2022-11-01T15:21:30.869Z,10.15
2022-11-01T15:23:59.246Z,8.90
2022-11-01T15:26:33.050Z,8.15
2022-11-01T15:29:03.715Z,10.27
2022-11-01T15:31:34.453Z,9.63
2022-11-01T15:34:20.987Z,8.63
2022-11-01T15:36:51.388Z,9.95
2022-11-01T15:39:39.526Z,9.73
2022-11-01T15:42:17.133Z,9.40
2022-11-01T15:44:46.201Z,7.32
2022-11-01T15:47:20.733Z,8.77
2022-11-01T15:49:51.803Z,8.27
2022-11-01T15:52:22.980Z,9.82
2022-11-01T15:55:21.045Z,8.77
2022-11-01T15:57:57.013Z,9.60
2022-11-01T16:00:28.536Z,9.85
2022-11-01T16:03:18.500Z,9.32
2022-11-01T16:05:56.835Z,9.10
2022-11-01T16:08:39.872Z,8.97
2022-11-01T16:11:07.805Z,9.05
2022-11-01T16:13:35.289Z,8.07
2022-11-01T16:16:13.339Z,9.02
2022-11-01T16:18:45.147Z,8.77
2022-11-01T16:24:10.640Z,8.57
2022-11-01T16:27:07.905Z,8.57
2022-11-01T16:29:48.067Z,7.60
2022-11-01T16:32:30.385Z,10.27
2022-11-01T16:34:58.854Z,8.90
2022-11-01T16:37:29.706Z,8.18
2022-11-01T16:40:01.917Z,9.82
2022-11-01T16:42:29.581Z,9.65
2022-11-01T16:45:01.662Z,9.25
2022-11-01T16:47:28.438Z,11.57
2022-11-01T16:49:57.518Z,9.35
2022-11-01T16:52:24.792Z,9.32
2022-11-01T16:54:51.488Z,11.07
2022-11-01T16:57:26.903Z,10.30
2022-11-01T16:59:58.786Z,10.77
2022-11-01T17:05:00.734Z,10.40
2022-11-01T17:07:27.691Z,8.07
2022-11-01T17:09:54.666Z,10.48
2022-11-01T17:12:21.403Z,11.40
2022-11-01T17:14:48.083Z,11.05
2022-11-01T17:17:20.168Z,11.55
2022-11-01T17:19:50.508Z,11.55
2022-11-01T17:22:28.758Z,11.18
2022-11-01T17:24:56.148Z,10.68
2022-11-01T17:27:22.892Z,11.90
2022-11-01T17:29:55.361Z,10.13
2022-11-01T17:32:25.013Z,11.23
2022-11-01T17:34:51.677Z,12.10
2022-11-01T17:37:18.243Z,12.45
2022-11-01T17:39:44.982Z,12.23
2022-11-01T17:42:14.560Z,12.57
2022-11-01T17:44:41.041Z,11.82
2022-11-01T17:47:13.540Z,11.82
2022-11-01T17:49:41.098Z,12.00
2022-11-01T17:52:07.782Z,12.65
2022-11-01T17:54:34.415Z,13.05
2022-11-01T17:57:03.261Z,12.82
2022-11-01T17:59:30.860Z,13.00
2022-11-01T18:01:57.430Z,12.55
2022-11-01T18:04:26.901Z,9.18
2022-11-01T18:06:53.393Z,14.63
2022-11-01T18:09:28.184Z,16.33
2022-11-01T18:12:00.630Z,15.77
2022-11-01T18:14:33.160Z,17.60
2022-11-01T18:17:37.177Z,15.73
2022-11-01T18:20:16.387Z,15.50
2022-11-01T18:23:01.936Z,18.67
2022-11-01T18:25:43.477Z,19.05
2022-11-01T18:28:16.057Z,18.75
2022-11-01T18:31:17.001Z,14.27
2022-11-01T18:33:44.706Z,16.02
2022-11-01T18:36:21.569Z,15.57
2022-11-01T18:38:57.399Z,14.25
2022-11-01T18:41:24.075Z,14.60
2022-11-01T18:43:54.592Z,14.45
2022-11-01T18:46:27.644Z,10.93
2022-11-01T18:49:00.832Z,13.23
2022-11-01T18:51:33.567Z,13.40
2022-11-01T18:54:11.723Z,11.35
2022-11-01T18:56:47.695Z,10.30
2022-11-01T18:59:27.448Z,12.88
2022-11-01T19:02:19.013Z,12.98
2022-11-01T19:04:47.381Z,11.55
2022-11-01T19:07:14.117Z,13.32
2022-11-01T19:09:46.751Z,13.00
2022-11-01T19:12:23.943Z,13.48
2022-11-01T19:14:58.676Z,11.63
2022-11-01T19:17:35.759Z,11.38
2022-11-01T19:20:02.420Z,13.90
2022-11-01T19:22:39.884Z,12.27
2022-11-01T19:25:35.399Z,13.05
2022-11-01T19:28:11.248Z,12.30
2022-11-01T19:30:42.469Z,13.63
2022-11-01T19:33:42.129Z,13.48
2022-11-01T19:36:18.987Z,12.95
2022-11-01T19:38:47.082Z,11.45
2022-11-01T19:41:34.688Z,14.70
2022-11-01T19:44:11.981Z,12.40
2022-11-01T19:46:38.722Z,14.52
2022-11-01T19:49:20.046Z,11.98
2022-11-01T19:52:14.810Z,11.98
2022-11-01T19:54:52.388Z,16.38
2022-11-01T19:57:33.760Z,12.98
2022-11-01T20:00:22.653Z,13.95
2022-11-01T20:03:02.745Z,12.80
2022-11-01T20:05:34.983Z,14.77
2022-11-01T20:10:38.890Z,14.82
2022-11-01T20:13:10.056Z,15.32
2022-11-01T20:15:38.503Z,15.88
2022-11-01T20:18:06.576Z,14.23
2022-11-01T20:20:34.392Z,15.48
2022-11-01T20:23:25.064Z,15.52
2022-11-01T20:25:50.401Z,17.23
2022-11-01T20:28:18.074Z,16.88
2022-11-01T20:30:44.754Z,16.10
2022-11-01T20:33:12.670Z,16.95
2022-11-01T20:35:40.415Z,16.83
2022-11-01T20:38:08.343Z,17.50
2022-11-01T20:40:35.310Z,18.77
2022-11-01T20:43:06.074Z,17.83
2022-11-01T20:45:34.931Z,18.67
2022-11-01T20:48:03.108Z,19.50
2022-11-01T20:50:30.958Z,19.65
2022-11-01T20:53:00.113Z,19.83
2022-11-01T20:55:28.725Z,19.67
2022-11-01T20:57:58.069Z,20.40
2022-11-01T21:00:24.889Z,18.83
2022-11-01T21:02:51.733Z,19.27
2022-11-01T21:05:22.489Z,18.98
2022-11-01T21:08:29.013Z,18.55
2022-11-01T21:10:58.801Z,18.00
2022-11-01T21:13:29.687Z,17.35
2022-11-01T21:16:01.526Z,17.40
2022-11-01T21:18:33.728Z,16.77
2022-11-01T21:21:28.853Z,17.45
2022-11-01T21:23:58.257Z,17.83
2022-11-01T21:26:31.865Z,16.52
2022-11-01T21:29:04.973Z,16.83
2022-11-01T21:31:39.078Z,16.92
2022-11-01T21:34:11.847Z,16.45
2022-11-01T21:36:48.879Z,13.60
2022-11-01T21:39:27.727Z,11.45
2022-11-01T21:41:58.225Z,11.98
2022-11-01T21:44:45.482Z,15.43
2022-11-01T21:47:19.228Z,15.98
2022-11-01T21:49:48.204Z,15.63
2022-11-01T21:52:15.491Z,16.98
2022-11-01T21:54:42.800Z,13.10
2022-11-01T21:57:10.857Z,16.02
2022-11-01T21:59:37.533Z,15.93
2022-11-01T22:02:06.343Z,15.73
2022-11-01T22:04:36.020Z,14.35
2022-11-01T22:07:07.182Z,15.23
2022-11-01T22:09:37.037Z,15.20
2022-11-01T22:12:03.966Z,12.75
2022-11-01T22:14:32.734Z,12.70
2022-11-01T22:17:01.038Z,13.43
2022-11-01T22:19:27.731Z,12.93
2022-11-01T22:21:54.280Z,12.57
2022-11-01T22:24:20.856Z,13.55
2022-11-01T22:26:50.168Z,12.63
2022-11-01T22:29:18.488Z,12.25
2022-11-01T22:31:45.095Z,11.35
2022-11-01T22:34:11.981Z,11.88
2022-11-01T22:36:40.364Z,11.27
2022-11-01T22:39:23.575Z,11.18
2022-11-01T22:41:50.262Z,10.57
2022-11-01T22:44:19.993Z,11.75
2022-11-01T22:46:59.586Z,11.45
2022-11-01T22:49:32.603Z,11.48
2022-11-01T22:52:06.296Z,10.98
2022-11-01T22:54:45.308Z,10.30
2022-11-01T22:57:23.498Z,11.32
2022-11-01T23:00:02.185Z,10.23
2022-11-01T23:02:31.412Z,11.32
2022-11-01T23:05:20.182Z,11.63
2022-11-01T23:07:52.413Z,12.88
2022-11-01T23:10:28.923Z,9.80
2022-11-01T23:13:36.058Z,11.85
2022-11-01T23:16:15.578Z,12.48
2022-11-01T23:18:43.871Z,12.20
2022-11-01T23:21:10.570Z,10.88
2022-11-01T23:23:41.774Z,9.65
2022-11-01T23:26:11.453Z,10.68
2022-11-01T23:28:58.505Z,10.32
2022-11-01T23:31:28.533Z,9.45
2022-11-01T23:34:05.954Z,10.43
2022-11-01T23:36:38.307Z,8.80
2022-11-01T23:39:14.617Z,8.15
2022-11-01T23:41:49.514Z,9.00
2022-11-01T23:44:33.993Z,7.82
2022-11-01T23:47:07.769Z,8.40
2022-11-01T23:49:34.819Z,7.50
2022-11-01T23:52:01.521Z,7.72
2022-11-01T23:54:42.263Z,8.43
2022-11-01T23:57:24.959Z,7.60
2022-11-01T23:59:56.188Z,7.70
